createdAt,value
2018-05-08T00:01:42.093Z,3.00
2018-05-08T00:04:09.960Z,3.73
2018-05-08T00:06:37.927Z,2.93
2018-05-08T00:09:06.000Z,2.80
2018-05-08T00:11:33.757Z,2.77
2018-05-08T00:14:01.629Z,3.20
2018-05-08T00:16:29.499Z,3.30
2018-05-08T00:18:57.363Z,2.93
2018-05-08T00:21:25.229Z,3.20
2018-05-08T00:23:53.097Z,3.13
2018-05-08T00:26:20.962Z,3.30
2018-05-08T00:28:48.829Z,3.00
2018-05-08T00:31:16.696Z,3.10
2018-05-08T00:33:44.563Z,2.50
2018-05-08T00:36:12.429Z,3.00
2018-05-08T00:38:40.296Z,2.90
2018-05-08T00:41:08.164Z,3.10
2018-05-08T00:43:36.029Z,3.40
2018-05-08T00:46:03.998Z,2.90
2018-05-08T00:48:31.764Z,2.87
2018-05-08T00:50:59.629Z,3.13
2018-05-08T00:53:27.495Z,3.00
2018-05-08T00:55:55.362Z,2.83
2018-05-08T00:58:23.228Z,2.87
2018-05-08T01:00:51.094Z,2.80
2018-05-08T01:03:19.064Z,3.10
2018-05-08T01:05:46.931Z,2.67
2018-05-08T01:08:14.797Z,2.60
2018-05-08T01:10:42.664Z,2.63
2018-05-08T01:13:10.535Z,3.20
2018-05-08T01:15:38.397Z,3.13
2018-05-08T01:18:06.264Z,2.90
2018-05-08T01:20:34.130Z,2.87
2018-05-08T01:23:02.002Z,3.07
2018-05-08T01:25:30.477Z,3.00
2018-05-08T01:27:58.350Z,3.10
2018-05-08T01:30:26.210Z,3.20
2018-05-08T01:32:54.183Z,2.80
2018-05-08T01:35:22.045Z,2.70
2018-05-08T01:37:49.912Z,2.80
2018-05-08T01:40:17.779Z,2.87
2018-05-08T01:42:45.748Z,3.13
2018-05-08T01:45:13.614Z,3.10
2018-05-08T01:47:41.481Z,3.07
2018-05-08T01:50:09.347Z,3.10
2018-05-08T01:52:37.214Z,2.90
2018-05-08T01:55:05.083Z,2.97
2018-05-08T01:57:32.948Z,3.03
2018-05-08T02:00:00.814Z,3.00
2018-05-08T02:02:28.682Z,3.00
2018-05-08T02:04:56.547Z,3.07
2018-05-08T02:07:24.449Z,3.33
2018-05-08T02:09:53.024Z,2.90
2018-05-08T02:12:20.966Z,2.87
2018-05-08T02:14:48.832Z,2.63
2018-05-08T02:17:16.700Z,3.07
2018-05-08T02:19:49.687Z,2.83
2018-05-08T02:22:19.562Z,3.10
2018-05-08T02:24:49.600Z,2.90
2018-05-08T02:27:17.484Z,3.13
2018-05-08T02:29:45.351Z,3.17
2018-05-08T02:32:13.218Z,2.80
2018-05-08T02:34:41.084Z,3.30
2018-05-08T02:37:08.953Z,3.12
2018-05-08T02:39:36.817Z,3.37
2018-05-08T02:42:04.610Z,3.50
2018-05-08T02:44:33.197Z,2.80
2018-05-08T02:47:01.854Z,3.00
2018-05-08T02:49:29.717Z,3.77
2018-05-08T02:51:57.588Z,3.00
2018-05-08T02:54:26.270Z,2.80
2018-05-08T02:56:54.136Z,2.90
2018-05-08T02:59:22.003Z,3.80
2018-05-08T03:01:49.870Z,2.87
2018-05-08T03:04:17.736Z,3.13
2018-05-08T03:06:45.602Z,3.53
2018-05-08T03:09:13.577Z,3.75
2018-05-08T03:11:41.439Z,3.15
2018-05-08T03:14:09.304Z,2.65
2018-05-08T03:16:37.171Z,3.28
2018-05-08T03:19:05.038Z,3.53
2018-05-08T03:21:32.903Z,3.12
2018-05-08T03:24:00.772Z,3.20
2018-05-08T03:26:28.637Z,2.85
2018-05-08T03:28:56.605Z,3.70
2018-05-08T03:31:24.472Z,2.80
2018-05-08T03:33:52.340Z,3.30
2018-05-08T03:36:20.205Z,3.80
2018-05-08T03:38:48.072Z,3.65
2018-05-08T03:41:15.868Z,3.17
2018-05-08T03:43:44.521Z,3.90
2018-05-08T03:46:12.491Z,3.58
2018-05-08T03:48:40.357Z,3.10
2018-05-08T03:51:08.327Z,3.70
2018-05-08T03:53:36.192Z,2.92
2018-05-08T03:56:04.060Z,3.60
2018-05-08T03:58:31.928Z,2.83
2018-05-08T04:01:11.601Z,3.15
2018-05-08T04:03:52.031Z,3.30
2018-05-08T04:09:25.568Z,3.28
2018-05-08T04:11:54.235Z,3.35
2018-05-08T04:14:22.102Z,2.83
2018-05-08T04:16:50.070Z,3.28
2018-05-08T04:19:17.939Z,2.87
2018-05-08T04:21:45.804Z,3.22
2018-05-08T04:24:13.671Z,3.42
2018-05-08T04:26:41.537Z,2.83
2018-05-08T04:29:09.404Z,2.55
2018-05-08T04:31:37.270Z,2.65
2018-05-08T04:34:05.137Z,3.33
2018-05-08T04:36:33.041Z,3.08
2018-05-08T04:39:01.692Z,3.97
2018-05-08T04:41:29.555Z,3.10
2018-05-08T04:43:57.423Z,2.75
2018-05-08T04:46:25.289Z,3.12
2018-05-08T04:48:53.155Z,3.17
2018-05-08T04:51:21.022Z,2.80
2018-05-08T04:53:48.888Z,3.80
2018-05-08T04:56:16.686Z,3.13
2018-05-08T04:58:45.340Z,3.45
2018-05-08T05:01:13.205Z,3.47
2018-05-08T05:03:41.072Z,3.63
2018-05-08T05:06:08.940Z,4.17
2018-05-08T05:08:36.765Z,3.60
2018-05-08T05:11:05.467Z,3.37
2018-05-08T05:13:34.073Z,3.00
2018-05-08T05:16:01.942Z,3.83
2018-05-08T05:18:29.806Z,3.50
2018-05-08T05:20:57.674Z,2.73
2018-05-08T05:23:25.540Z,2.73
2018-05-08T05:25:53.407Z,3.70
2018-05-08T05:28:21.273Z,3.37
2018-05-08T05:30:49.140Z,3.20
2018-05-08T05:33:17.008Z,2.80
2018-05-08T05:35:44.873Z,3.90
2018-05-08T05:38:12.740Z,3.23
2018-05-08T05:40:40.607Z,3.23
2018-05-08T05:43:08.474Z,3.00
2018-05-08T05:45:36.340Z,3.33
2018-05-08T05:48:04.132Z,3.17
2018-05-08T05:53:06.904Z,3.30
2018-05-08T05:55:34.667Z,3.50
2018-05-08T05:58:02.541Z,3.53
2018-05-08T06:00:30.398Z,3.60
2018-05-08T06:02:58.267Z,3.10
2018-05-08T06:05:26.237Z,3.67
2018-05-08T06:07:54.205Z,3.50
2018-05-08T06:10:22.072Z,3.00
2018-05-08T06:12:50.042Z,3.30
2018-05-08T06:15:17.836Z,2.90
2018-05-08T06:17:45.774Z,2.80
2018-05-08T06:20:13.639Z,3.17
2018-05-08T06:22:41.477Z,3.07
2018-05-08T06:25:09.274Z,2.80
2018-05-08T06:27:37.086Z,3.63
2018-05-08T06:30:05.105Z,3.07
2018-05-08T06:32:32.975Z,2.50
2018-05-08T06:35:00.769Z,2.97
2018-05-08T06:37:29.422Z,3.07
2018-05-08T06:39:57.359Z,3.70
2018-05-08T06:42:25.976Z,4.40
2018-05-08T06:44:53.841Z,5.90
2018-05-08T06:47:21.710Z,4.40
2018-05-08T06:49:49.470Z,3.10
2018-05-08T06:52:17.338Z,3.50
2018-05-08T06:54:45.205Z,3.10
2018-05-08T06:57:13.005Z,2.50
2018-05-08T06:59:41.558Z,2.90
2018-05-08T07:02:09.520Z,2.30
2018-05-08T07:04:37.389Z,2.70
2018-05-08T07:07:05.255Z,2.47
2018-05-08T07:09:33.223Z,2.73
2018-05-08T07:12:01.192Z,2.60
2018-05-08T07:14:28.955Z,2.60
2018-05-08T07:16:56.822Z,3.20
2018-05-08T07:19:24.689Z,2.70
2018-05-08T07:21:52.588Z,2.37
2018-05-08T07:24:20.525Z,3.30
2018-05-08T07:26:48.391Z,2.53
2018-05-08T07:29:16.463Z,2.20
2018-05-08T07:31:44.257Z,2.83
2018-05-08T07:34:12.911Z,2.50
2018-05-08T07:36:40.810Z,2.37
2018-05-08T07:39:08.676Z,2.47
2018-05-08T07:41:36.482Z,2.63
2018-05-08T07:44:04.378Z,2.37
2018-05-08T07:46:32.141Z,2.70
2018-05-08T07:49:00.010Z,2.37
2018-05-08T07:51:27.978Z,2.50
2018-05-08T07:53:55.775Z,2.23
2018-05-08T07:56:24.427Z,2.60
2018-05-08T07:58:52.227Z,2.27
2018-05-08T08:01:20.878Z,2.70
2018-05-08T08:03:48.671Z,3.10
2018-05-08T08:06:16.610Z,2.67
2018-05-08T08:08:44.476Z,2.90
2018-05-08T08:11:12.222Z,2.90
2018-05-08T08:13:40.106Z,2.40
2018-05-08T08:16:08.075Z,2.97
2018-05-08T08:18:35.965Z,3.17
2018-05-08T08:21:04.660Z,2.83
2018-05-08T08:23:32.597Z,3.27
2018-05-08T08:26:00.567Z,3.13
2018-05-08T08:28:28.432Z,2.87
2018-05-08T08:30:56.300Z,3.00
2018-05-08T08:33:24.094Z,3.30
2018-05-08T08:35:52.684Z,3.73
2018-05-08T08:38:21.335Z,3.30
2018-05-08T08:40:49.197Z,3.30
2018-05-08T08:43:16.967Z,3.50
2018-05-08T08:45:44.932Z,2.63
2018-05-08T08:48:12.800Z,3.50
2018-05-08T08:50:40.592Z,3.60
2018-05-08T08:53:08.528Z,3.93
2018-05-08T08:55:36.398Z,4.10
2018-05-08T08:58:04.266Z,3.50
2018-05-08T09:00:32.132Z,3.90
2018-05-08T09:02:59.997Z,3.83
2018-05-08T09:05:27.864Z,3.80
2018-05-08T09:07:55.656Z,3.83
2018-05-08T09:10:23.661Z,4.00
2018-05-08T09:12:52.285Z,3.87
2018-05-08T09:15:20.053Z,3.80
2018-05-08T09:17:47.914Z,3.87
2018-05-08T09:20:15.782Z,4.07
2018-05-08T09:22:43.647Z,4.33
2018-05-08T09:25:11.514Z,4.27
2018-05-08T09:27:39.409Z,4.97
2018-05-08T09:30:08.066Z,3.70
2018-05-08T09:32:35.861Z,4.93
2018-05-08T09:35:06.213Z,3.83
2018-05-08T09:37:33.969Z,4.33
2018-05-08T09:40:02.510Z,4.40
2018-05-08T09:42:30.270Z,4.30
2018-05-08T09:44:58.047Z,5.10
2018-05-08T09:47:25.843Z,4.43
2018-05-08T09:49:54.370Z,4.83
2018-05-08T09:52:22.149Z,3.77
2018-05-08T09:54:49.904Z,4.20
2018-05-08T09:57:17.678Z,4.60
2018-05-08T09:59:45.508Z,4.10
2018-05-08T10:02:13.357Z,3.60
2018-05-08T10:04:41.155Z,4.17
2018-05-08T10:07:08.936Z,4.10
2018-05-08T10:09:37.803Z,5.20
2018-05-08T10:12:05.590Z,4.30
2018-05-08T10:14:33.528Z,4.30
2018-05-08T10:17:01.329Z,5.90
2018-05-08T10:19:29.106Z,3.93
2018-05-08T10:21:56.897Z,4.10
2018-05-08T10:24:25.445Z,4.33
2018-05-08T10:26:54.015Z,5.77
2018-05-08T10:29:21.845Z,5.90
2018-05-08T10:31:49.598Z,4.53
2018-05-08T10:34:18.118Z,4.40
2018-05-08T10:36:45.870Z,4.40
2018-05-08T10:39:13.756Z,4.57
2018-05-08T10:41:41.550Z,4.40
2018-05-08T10:44:10.207Z,4.70
2018-05-08T10:46:38.002Z,4.23
2018-05-08T10:49:06.539Z,4.40
2018-05-08T10:51:34.307Z,5.00
2018-05-08T10:54:02.083Z,4.60
2018-05-08T10:56:29.846Z,4.90
2018-05-08T10:58:57.713Z,4.33
2018-05-08T11:01:25.478Z,4.07
2018-05-08T11:03:53.344Z,3.80
2018-05-08T11:06:21.209Z,4.70
2018-05-08T11:08:48.972Z,4.37
2018-05-08T11:11:16.840Z,4.93
2018-05-08T11:13:44.710Z,4.50
2018-05-08T11:16:13.378Z,3.33
2018-05-08T11:18:41.183Z,3.40
2018-05-08T11:21:08.948Z,3.37
2018-05-08T11:23:36.787Z,3.97
2018-05-08T11:26:04.563Z,3.43
2018-05-08T11:28:32.519Z,3.42
2018-05-08T11:31:00.272Z,3.30
2018-05-08T11:33:28.031Z,3.27
2018-05-08T11:35:55.798Z,2.70
2018-05-08T11:38:23.585Z,2.60
2018-05-08T11:40:51.368Z,2.90
2018-05-08T11:43:19.133Z,3.00
2018-05-08T11:45:46.916Z,3.23
2018-05-08T11:48:15.433Z,2.20
2018-05-08T11:50:43.196Z,2.78
2018-05-08T11:53:10.953Z,2.73
2018-05-08T11:55:38.709Z,3.47
2018-05-08T11:58:06.483Z,3.40
2018-05-08T12:00:34.241Z,4.50
2018-05-08T12:03:02.010Z,4.10
2018-05-08T12:05:29.761Z,3.20
2018-05-08T12:07:57.590Z,3.40
2018-05-08T12:10:25.342Z,2.60
2018-05-08T12:12:53.098Z,2.80
2018-05-08T12:15:20.876Z,2.77
2018-05-08T12:17:48.640Z,2.43
2018-05-08T12:20:17.017Z,3.53
2018-05-08T12:22:45.344Z,3.10
2018-05-08T12:25:13.150Z,3.43
2018-05-08T12:27:40.936Z,3.40
2018-05-08T12:30:09.095Z,2.60
2018-05-08T12:32:36.972Z,3.40
2018-05-08T12:35:06.246Z,2.73
2018-05-08T12:37:34.113Z,2.73
2018-05-08T12:40:01.917Z,3.60
2018-05-08T12:42:30.496Z,2.90
2018-05-08T12:44:59.024Z,2.93
2018-05-08T12:47:26.834Z,3.00
2018-05-08T12:49:54.705Z,3.87
2018-05-08T12:52:22.416Z,3.33
2018-05-08T12:54:50.183Z,3.30
2018-05-08T12:57:17.949Z,2.60
2018-05-08T12:59:45.705Z,3.00
2018-05-08T13:02:14.417Z,2.97
2018-05-08T13:04:42.283Z,3.17
2018-05-08T13:07:10.859Z,3.10
2018-05-08T13:09:38.738Z,2.70
2018-05-08T13:12:06.484Z,3.30
2018-05-08T13:14:34.248Z,3.50
2018-05-08T13:17:02.079Z,2.43
2018-05-08T13:19:30.102Z,2.97
2018-05-08T13:21:57.862Z,3.80
2018-05-08T13:24:25.830Z,2.57
2018-05-08T13:26:53.696Z,2.63
2018-05-08T13:29:21.562Z,2.40
2018-05-08T13:31:50.279Z,2.87
2018-05-08T13:34:18.513Z,2.60
2018-05-08T13:36:46.331Z,3.30
2018-05-08T13:39:14.061Z,3.27
2018-05-08T13:41:41.824Z,3.00
2018-05-08T13:44:09.604Z,3.43
2018-05-08T13:46:37.364Z,4.03
2018-05-08T13:49:05.133Z,3.33
2018-05-08T13:51:32.892Z,3.43
2018-05-08T13:54:00.743Z,3.17
2018-05-08T13:56:28.607Z,3.90
2018-05-08T13:58:56.576Z,4.00
2018-05-08T14:01:24.443Z,3.27
2018-05-08T14:03:52.310Z,3.80
2018-05-08T14:06:20.175Z,2.97
2018-05-08T14:08:48.458Z,3.50
2018-05-08T14:11:17.773Z,3.60
2018-05-08T14:13:47.017Z,3.13
2018-05-08T14:16:15.482Z,3.47
2018-05-08T14:18:43.466Z,2.87
2018-05-08T14:21:11.445Z,3.67
2018-05-08T14:23:40.259Z,2.70
2018-05-08T14:26:08.126Z,3.50
2018-05-08T14:28:35.965Z,2.90
2018-05-08T14:31:04.168Z,2.97
2018-05-08T14:33:32.852Z,3.60
2018-05-08T14:36:00.924Z,3.50
2018-05-08T14:38:29.016Z,3.17
2018-05-08T14:40:57.390Z,3.40
2018-05-08T14:43:26.448Z,3.47
2018-05-08T14:45:54.335Z,3.43
2018-05-08T14:48:22.205Z,3.50
2018-05-08T14:50:50.069Z,3.00
2018-05-08T14:53:17.861Z,3.77
2018-05-08T14:55:46.621Z,3.27
2018-05-08T14:58:14.417Z,4.07
2018-05-08T15:00:42.182Z,3.00
2018-05-08T15:03:09.944Z,3.50
2018-05-08T15:05:37.708Z,3.07
2018-05-08T15:08:05.473Z,3.03
2018-05-08T15:10:33.227Z,4.23
2018-05-08T15:13:00.989Z,3.60
2018-05-08T15:15:29.552Z,5.07
2018-05-08T15:17:57.337Z,4.30
2018-05-08T15:20:25.153Z,4.60
2018-05-08T15:22:52.933Z,4.37
2018-05-08T15:25:20.916Z,4.40
2018-05-08T15:27:48.690Z,3.80
2018-05-08T15:30:16.464Z,4.17
2018-05-08T15:32:44.243Z,5.00
2018-05-08T15:35:12.012Z,4.77
2018-05-08T15:37:40.574Z,4.13
2018-05-08T15:40:08.330Z,5.00
2018-05-08T15:42:36.079Z,4.63
2018-05-08T15:45:03.897Z,4.80
2018-05-08T15:47:32.447Z,5.13
2018-05-08T15:50:00.211Z,4.77
2018-05-08T15:52:27.997Z,4.73
2018-05-08T15:54:56.527Z,4.70
2018-05-08T15:57:24.292Z,5.37
2018-05-08T15:59:52.090Z,4.47
2018-05-08T16:02:19.858Z,4.80
2018-05-08T16:04:47.637Z,5.03
2018-05-08T16:07:16.170Z,4.53
2018-05-08T16:09:43.981Z,5.10
2018-05-08T16:12:11.746Z,4.30
2018-05-08T16:14:39.784Z,4.27
2018-05-08T16:17:07.667Z,5.13
2018-05-08T16:19:35.460Z,4.63
2018-05-08T16:22:04.033Z,5.70
2018-05-08T16:24:32.559Z,4.73
2018-05-08T16:27:00.353Z,4.10
2018-05-08T16:29:28.143Z,3.80
2018-05-08T16:31:55.909Z,4.10
2018-05-08T16:34:24.429Z,4.23
2018-05-08T16:36:52.196Z,3.87
2018-05-08T16:39:19.958Z,3.90
2018-05-08T16:41:47.721Z,3.23
2018-05-08T16:44:15.481Z,3.20
2018-05-08T16:46:43.244Z,3.50
2018-05-08T16:49:11.005Z,3.70
2018-05-08T16:51:38.774Z,16.43
2018-05-08T16:54:06.593Z,7.07
2018-05-08T16:56:34.403Z,4.70
2018-05-08T16:59:02.152Z,4.33
2018-05-08T17:01:30.702Z,3.97
2018-05-08T17:03:58.461Z,3.43
2018-05-08T17:06:26.213Z,3.63
2018-05-08T17:08:53.974Z,3.60
2018-05-08T17:11:21.739Z,3.40
2018-05-08T17:13:49.509Z,3.03
2018-05-08T17:16:17.251Z,3.00
2018-05-08T17:18:45.005Z,2.87
2018-05-08T17:21:12.773Z,3.50
2018-05-08T17:23:40.541Z,3.90
2018-05-08T17:26:08.342Z,2.93
2018-05-08T17:28:36.092Z,2.70
2018-05-08T17:31:03.852Z,2.30
2018-05-08T17:33:31.617Z,2.37
2018-05-08T17:35:59.378Z,2.43
2018-05-08T17:38:27.228Z,2.00
2018-05-08T17:40:55.060Z,2.00
2018-05-08T17:43:23.586Z,2.00
2018-05-08T17:45:51.565Z,1.97
2018-05-08T17:48:19.565Z,1.57
2018-05-08T17:50:47.328Z,1.53
2018-05-08T17:53:15.074Z,2.07
2018-05-08T17:55:42.889Z,2.10
2018-05-08T17:58:10.657Z,2.43
2018-05-08T18:00:38.737Z,1.97
2018-05-08T18:03:06.577Z,2.20
2018-05-08T18:05:35.214Z,1.90
2018-05-08T18:08:03.009Z,1.40
2018-05-08T18:10:30.809Z,1.70
2018-05-08T18:12:58.982Z,1.40
2018-05-08T18:15:27.026Z,1.37
2018-05-08T18:17:54.832Z,2.00
2018-05-08T18:20:22.609Z,1.50
2018-05-08T18:22:50.406Z,1.40
2018-05-08T18:25:18.363Z,1.33
2018-05-08T18:27:46.137Z,1.90
2018-05-08T18:30:14.045Z,2.00
2018-05-08T18:32:41.952Z,1.50
2018-05-08T18:35:09.819Z,2.20
2018-05-08T18:37:37.633Z,1.80
2018-05-08T18:40:06.176Z,1.40
2018-05-08T18:42:34.013Z,1.30
2018-05-08T18:45:01.841Z,1.60
2018-05-08T18:47:30.480Z,1.43
2018-05-08T18:49:58.259Z,1.70
2018-05-08T18:52:26.321Z,1.43
2018-05-08T18:54:54.091Z,1.93
2018-05-08T18:57:22.153Z,1.70
2018-05-08T18:59:49.985Z,1.90
2018-05-08T19:02:17.777Z,1.70
2018-05-08T19:04:45.753Z,1.80
2018-05-08T19:07:14.078Z,1.50
2018-05-08T19:09:41.974Z,2.00
2018-05-08T19:12:09.763Z,1.60
2018-05-08T19:14:38.789Z,1.80
2018-05-08T19:17:07.440Z,1.90
2018-05-08T19:19:40.826Z,1.83
2018-05-08T19:22:08.703Z,1.90
2018-05-08T19:24:37.065Z,1.83
2018-05-08T19:27:04.931Z,1.67
2018-05-08T19:29:38.506Z,1.87
2018-05-08T19:32:07.656Z,2.00
2018-05-08T19:34:41.994Z,1.83
2018-05-08T19:37:15.909Z,1.60
2018-05-08T19:39:45.003Z,2.20
2018-05-08T19:42:14.120Z,1.97
2018-05-08T19:44:41.929Z,1.97
2018-05-08T19:47:09.800Z,1.93
2018-05-08T19:49:38.833Z,2.07
2018-05-08T19:52:07.937Z,1.93
2018-05-08T19:54:35.784Z,2.17
2018-05-08T19:57:05.069Z,2.20
2018-05-08T19:59:32.833Z,2.03
2018-05-08T20:02:01.017Z,2.40
2018-05-08T20:04:29.561Z,2.17
2018-05-08T20:06:57.330Z,2.37
2018-05-08T20:09:25.760Z,2.50
2018-05-08T20:11:54.498Z,2.60
2018-05-08T20:14:22.249Z,2.73
2018-05-08T20:16:50.160Z,2.37
2018-05-08T20:19:18.510Z,2.97
2018-05-08T20:21:46.279Z,2.60
2018-05-08T20:24:14.845Z,3.13
2018-05-08T20:26:42.609Z,3.13
2018-05-08T20:29:10.620Z,2.80
2018-05-08T20:31:38.473Z,3.23
2018-05-08T20:34:06.266Z,3.00
2018-05-08T20:36:34.792Z,3.10
2018-05-08T20:39:02.673Z,2.90
2018-05-08T20:41:32.076Z,3.30
2018-05-08T20:44:00.762Z,3.20
2018-05-08T20:46:29.055Z,2.80
2018-05-08T20:48:56.906Z,2.80
2018-05-08T20:51:24.867Z,3.00
2018-05-08T20:53:52.740Z,3.00
2018-05-08T20:56:20.521Z,3.00
2018-05-08T20:58:48.284Z,3.03
2018-05-08T21:01:16.132Z,3.40
2018-05-08T21:03:44.582Z,3.10
2018-05-08T21:06:12.949Z,3.30
2018-05-08T21:08:41.170Z,2.80
2018-05-08T21:11:09.820Z,3.10
2018-05-08T21:13:37.580Z,3.03
2018-05-08T21:16:05.336Z,3.07
2018-05-08T21:18:33.090Z,2.80
2018-05-08T21:21:01.617Z,3.13
2018-05-08T21:23:29.378Z,3.53
2018-05-08T21:25:57.277Z,3.40
2018-05-08T21:28:31.133Z,2.53
2018-05-08T21:31:04.916Z,3.47
2018-05-08T21:33:33.447Z,4.00
2018-05-08T21:36:01.269Z,3.37
2018-05-08T21:38:30.448Z,3.00
2018-05-08T21:40:59.052Z,3.63
2018-05-08T21:43:26.967Z,3.07
2018-05-08T21:45:54.834Z,3.27
2018-05-08T21:48:22.673Z,3.20
2018-05-08T21:50:50.568Z,3.40
2018-05-08T21:53:18.583Z,2.70
2018-05-08T21:55:47.223Z,3.03
2018-05-08T21:58:15.220Z,3.23
2018-05-08T22:00:43.159Z,3.10
2018-05-08T22:03:11.026Z,3.23
2018-05-08T22:05:38.892Z,2.97
2018-05-08T22:08:06.759Z,3.40
2018-05-08T22:10:34.625Z,3.60
2018-05-08T22:13:02.492Z,2.90
2018-05-08T22:15:30.461Z,3.77
2018-05-08T22:17:58.328Z,3.20
2018-05-08T22:20:26.195Z,3.30
2018-05-08T22:22:54.060Z,3.40
2018-05-08T22:25:21.927Z,2.90
2018-05-08T22:27:49.793Z,3.30
2018-05-08T22:30:17.660Z,3.80
2018-05-08T22:32:45.531Z,3.53
2018-05-08T22:35:13.393Z,3.20
2018-05-08T22:37:41.260Z,3.97
2018-05-08T22:40:09.126Z,3.50
2018-05-08T22:42:36.993Z,3.60
2018-05-08T22:45:04.859Z,3.50
2018-05-08T22:47:32.727Z,3.73
2018-05-08T22:50:00.593Z,3.80
2018-05-08T22:52:28.462Z,3.60
2018-05-08T22:54:56.326Z,3.50
2018-05-08T22:57:24.192Z,3.80
2018-05-08T22:59:52.062Z,4.60
2018-05-08T23:02:19.925Z,3.77
2018-05-08T23:04:47.796Z,3.73
2018-05-08T23:07:15.659Z,3.63
2018-05-08T23:09:43.627Z,3.40
2018-05-08T23:12:11.596Z,3.97
2018-05-08T23:14:39.463Z,3.67
2018-05-08T23:17:07.330Z,3.83
2018-05-08T23:19:35.196Z,4.00
2018-05-08T23:22:03.069Z,3.50
2018-05-08T23:24:30.929Z,3.93
2018-05-08T23:26:58.796Z,3.67
2018-05-08T23:29:26.664Z,3.70
2018-05-08T23:31:54.529Z,3.50
2018-05-08T23:34:22.396Z,3.60
2018-05-08T23:36:50.188Z,3.30
2018-05-08T23:39:18.846Z,4.00
2018-05-08T23:41:46.713Z,3.30
2018-05-08T23:44:14.579Z,3.80
2018-05-08T23:46:42.476Z,3.50
2018-05-08T23:49:11.133Z,3.97
2018-05-08T23:51:38.997Z,3.20
2018-05-08T23:54:06.866Z,4.17
2018-05-08T23:56:34.733Z,3.50
2018-05-08T23:59:02.597Z,3.50
